createdAt,value
2018-06-29T00:02:06.700Z,18.40
2018-06-29T00:04:34.337Z,18.40
2018-06-29T00:07:01.986Z,18.30
2018-06-29T00:09:29.678Z,18.40
2018-06-29T00:11:57.326Z,18.40
2018-06-29T00:14:24.988Z,18.30
2018-06-29T00:16:52.634Z,18.30
2018-06-29T00:19:20.284Z,18.30
2018-06-29T00:21:47.957Z,18.20
2018-06-29T00:24:15.607Z,18.20
2018-06-29T00:26:43.269Z,18.20
2018-06-29T00:29:10.902Z,18.20
2018-06-29T00:31:38.509Z,18.10
2018-06-29T00:34:06.309Z,18.10
2018-06-29T00:36:33.881Z,18.00
2018-06-29T00:39:01.601Z,18.00
2018-06-29T00:41:29.278Z,18.00
2018-06-29T00:43:56.934Z,18.00
2018-06-29T00:46:24.584Z,18.00
2018-06-29T00:48:52.293Z,18.00
2018-06-29T00:51:19.942Z,18.10
2018-06-29T00:53:47.601Z,18.10
2018-06-29T00:56:15.274Z,18.00
2018-06-29T00:58:42.892Z,18.00
2018-06-29T01:01:10.512Z,17.90
2018-06-29T01:03:38.162Z,17.90
2018-06-29T01:06:05.896Z,17.90
2018-06-29T01:08:33.549Z,17.80
2018-06-29T01:11:01.214Z,17.80
2018-06-29T01:13:28.842Z,17.80
2018-06-29T01:15:56.510Z,17.80
2018-06-29T01:18:24.165Z,17.80
2018-06-29T01:20:51.895Z,17.80
2018-06-29T01:23:19.511Z,17.80
2018-06-29T01:25:47.160Z,17.70
2018-06-29T01:28:14.800Z,17.70
2018-06-29T01:30:42.428Z,17.70
2018-06-29T01:33:10.037Z,17.70
2018-06-29T01:35:37.660Z,17.70
2018-06-29T01:38:05.422Z,17.70
2018-06-29T01:40:33.102Z,17.60
2018-06-29T01:43:00.758Z,17.60
2018-06-29T01:45:28.462Z,17.60
2018-06-29T01:47:56.093Z,17.60
2018-06-29T01:50:23.750Z,17.60
2018-06-29T01:52:51.405Z,17.60
2018-06-29T01:55:19.084Z,17.60
2018-06-29T01:57:46.737Z,17.50
2018-06-29T02:00:14.417Z,17.50
2018-06-29T02:02:42.074Z,17.50
2018-06-29T02:05:09.761Z,17.50
2018-06-29T02:07:37.378Z,17.40
2018-06-29T02:10:05.057Z,17.40
2018-06-29T02:12:32.757Z,17.40
2018-06-29T02:15:00.435Z,17.40
2018-06-29T02:17:28.101Z,17.30
2018-06-29T02:19:55.773Z,17.40
2018-06-29T02:22:23.434Z,17.30
2018-06-29T02:24:51.134Z,17.30
2018-06-29T02:27:18.814Z,17.40
2018-06-29T02:29:46.441Z,17.30
2018-06-29T02:32:14.066Z,17.30
2018-06-29T02:34:41.864Z,17.20
2018-06-29T02:37:09.559Z,17.20
2018-06-29T02:39:37.198Z,17.20
2018-06-29T02:42:04.843Z,17.20
2018-06-29T02:44:32.542Z,17.20
2018-06-29T02:47:00.180Z,17.20
2018-06-29T02:49:27.779Z,17.20
2018-06-29T02:51:55.413Z,17.20
2018-06-29T02:54:23.041Z,17.30
2018-06-29T02:56:50.968Z,17.30
2018-06-29T02:59:19.606Z,17.30
2018-06-29T03:01:47.252Z,17.30
2018-06-29T03:04:14.899Z,17.30
2018-06-29T03:06:42.550Z,17.30
2018-06-29T03:09:10.536Z,17.30
2018-06-29T03:11:38.184Z,17.30
2018-06-29T03:14:06.106Z,17.30
2018-06-29T03:16:33.758Z,17.30
2018-06-29T03:19:01.402Z,17.40
2018-06-29T03:21:29.023Z,17.40
2018-06-29T03:23:56.650Z,17.40
2018-06-29T03:26:24.290Z,17.40
2018-06-29T03:28:51.982Z,17.40
2018-06-29T03:31:19.614Z,17.40
2018-06-29T03:33:47.262Z,17.40
2018-06-29T03:36:14.882Z,17.50
2018-06-29T03:38:42.544Z,17.50
2018-06-29T03:41:10.186Z,17.50
2018-06-29T03:43:37.843Z,17.60
2018-06-29T03:46:05.533Z,17.60
2018-06-29T03:48:33.145Z,17.60
2018-06-29T03:51:00.857Z,17.70
2018-06-29T03:53:28.510Z,17.60
2018-06-29T03:55:56.116Z,17.60
2018-06-29T03:58:23.762Z,17.60
2018-06-29T04:00:51.424Z,17.60
2018-06-29T04:03:19.129Z,17.60
2018-06-29T04:05:46.776Z,17.60
2018-06-29T04:08:14.568Z,17.60
2018-06-29T04:10:42.263Z,17.60
2018-06-29T04:13:10.022Z,17.70
2018-06-29T04:15:37.708Z,17.70
2018-06-29T04:18:05.767Z,17.70
2018-06-29T04:20:33.423Z,17.70
2018-06-29T04:23:01.154Z,17.60
2018-06-29T04:25:28.863Z,17.60
2018-06-29T04:27:56.510Z,17.70
2018-06-29T04:30:24.158Z,17.80
2018-06-29T04:32:51.822Z,17.80
2018-06-29T04:35:19.528Z,17.80
2018-06-29T04:37:47.203Z,17.80
2018-06-29T04:40:14.858Z,17.80
2018-06-29T04:42:42.522Z,17.80
2018-06-29T04:45:10.161Z,17.90
2018-06-29T04:47:37.795Z,17.90
2018-06-29T04:50:05.707Z,18.00
2018-06-29T04:52:33.355Z,18.00
2018-06-29T04:55:01.022Z,18.00
2018-06-29T04:57:28.690Z,18.10
2018-06-29T04:59:56.342Z,18.10
2018-06-29T05:02:24.027Z,18.10
2018-06-29T05:04:51.666Z,18.20
2018-06-29T05:07:19.309Z,18.30
2018-06-29T05:09:46.954Z,18.30
2018-06-29T05:12:14.589Z,18.40
2018-06-29T05:14:42.269Z,18.40
2018-06-29T05:17:09.917Z,18.50
2018-06-29T05:19:37.546Z,18.50
2018-06-29T05:22:05.250Z,18.60
2018-06-29T05:24:32.945Z,18.60
2018-06-29T05:27:00.640Z,18.70
2018-06-29T05:29:28.304Z,18.70
2018-06-29T05:31:55.942Z,18.70
2018-06-29T05:34:23.578Z,18.70
2018-06-29T05:36:51.261Z,18.70
2018-06-29T05:39:19.058Z,18.80
2018-06-29T05:41:46.830Z,18.80
2018-06-29T05:44:14.424Z,18.80
2018-06-29T05:46:42.035Z,18.80
2018-06-29T05:49:09.720Z,18.80
2018-06-29T05:51:37.714Z,18.80
2018-06-29T05:54:05.748Z,18.80
2018-06-29T05:56:33.485Z,18.90
2018-06-29T05:59:01.150Z,19.10
2018-06-29T06:01:28.871Z,19.40
2018-06-29T06:03:56.494Z,19.70
2018-06-29T06:06:24.129Z,19.90
2018-06-29T06:08:51.774Z,20.10
2018-06-29T06:11:19.474Z,20.20
2018-06-29T06:13:47.122Z,20.30
2018-06-29T06:16:14.771Z,20.40
2018-06-29T06:18:42.401Z,20.50
2018-06-29T06:21:10.047Z,20.60
2018-06-29T06:23:37.705Z,20.70
2018-06-29T06:26:05.364Z,20.80
2018-06-29T06:28:33.066Z,20.80
2018-06-29T06:31:00.713Z,20.90
2018-06-29T06:33:28.360Z,20.90
2018-06-29T06:35:56.091Z,20.80
2018-06-29T06:38:23.736Z,20.80
2018-06-29T06:40:51.397Z,20.70
2018-06-29T06:43:19.022Z,20.70
2018-06-29T06:45:46.710Z,20.60
2018-06-29T06:48:14.362Z,20.50
2018-06-29T06:50:42.025Z,20.50
2018-06-29T06:53:09.661Z,20.60
2018-06-29T06:55:37.372Z,20.70
2018-06-29T06:58:05.069Z,20.60
2018-06-29T07:00:32.732Z,20.60
2018-06-29T07:03:00.419Z,20.70
2018-06-29T07:05:28.062Z,20.80
2018-06-29T07:07:55.826Z,20.80
2018-06-29T07:10:23.483Z,20.70
2018-06-29T07:12:51.162Z,20.80
2018-06-29T07:15:18.810Z,20.90
2018-06-29T07:17:46.470Z,21.10
2018-06-29T07:20:14.109Z,21.30
2018-06-29T07:22:41.855Z,21.50
2018-06-29T07:25:09.504Z,21.60
2018-06-29T07:27:37.218Z,21.70
2018-06-29T07:30:06.236Z,21.80
2018-06-29T07:32:33.843Z,21.90
2018-06-29T07:35:01.511Z,22.00
2018-06-29T07:37:29.146Z,22.20
2018-06-29T07:39:56.818Z,22.20
2018-06-29T07:42:24.494Z,22.20
2018-06-29T07:44:52.141Z,22.20
2018-06-29T07:47:19.790Z,22.20
2018-06-29T07:49:47.441Z,22.10
2018-06-29T07:52:15.107Z,22.20
2018-06-29T07:54:42.978Z,22.20
2018-06-29T07:57:10.672Z,22.20
2018-06-29T07:59:38.339Z,22.20
2018-06-29T08:02:05.988Z,22.30
2018-06-29T08:04:33.674Z,22.50
2018-06-29T08:07:01.336Z,22.60
2018-06-29T08:09:29.013Z,22.80
2018-06-29T08:11:56.653Z,22.80
2018-06-29T08:14:24.322Z,22.90
2018-06-29T08:16:51.986Z,22.90
2018-06-29T08:19:19.706Z,22.90
2018-06-29T08:21:47.462Z,22.90
2018-06-29T08:24:15.206Z,23.00
2018-06-29T08:26:42.815Z,23.10
2018-06-29T08:29:10.523Z,23.20
2018-06-29T08:31:38.196Z,23.40
2018-06-29T08:34:05.931Z,23.50
2018-06-29T08:36:33.633Z,23.60
2018-06-29T08:39:01.327Z,23.80
2018-06-29T08:41:28.982Z,23.90
2018-06-29T08:43:56.677Z,23.90
2018-06-29T08:46:24.338Z,24.00
2018-06-29T08:48:52.029Z,24.00
2018-06-29T08:51:19.712Z,24.10
2018-06-29T08:53:47.473Z,24.20
2018-06-29T08:56:15.129Z,24.30
2018-06-29T08:58:42.822Z,24.40
2018-06-29T09:01:10.486Z,24.60
2018-06-29T09:03:38.219Z,24.70
2018-06-29T09:06:05.899Z,24.80
2018-06-29T09:08:33.579Z,24.90
2018-06-29T09:11:01.287Z,25.10
2018-06-29T09:13:28.974Z,25.10
2018-06-29T09:15:56.647Z,25.10
2018-06-29T09:18:24.311Z,25.30
2018-06-29T09:20:52.004Z,25.30
2018-06-29T09:23:19.734Z,25.50
2018-06-29T09:25:47.366Z,25.70
2018-06-29T09:28:15.102Z,25.80
2018-06-29T09:30:42.735Z,25.80
2018-06-29T09:33:10.359Z,25.90
2018-06-29T09:35:37.995Z,26.00
2018-06-29T09:38:05.987Z,26.00
2018-06-29T09:40:33.734Z,26.10
2018-06-29T09:43:01.354Z,26.20
2018-06-29T09:45:29.046Z,26.30
2018-06-29T09:47:56.724Z,26.40
2018-06-29T09:50:24.356Z,26.60
2018-06-29T09:52:51.965Z,26.60
2018-06-29T09:55:19.616Z,26.60
2018-06-29T09:57:47.281Z,26.70
2018-06-29T10:00:20.305Z,26.90
2018-06-29T10:02:47.942Z,26.80
2018-06-29T10:05:15.613Z,26.80
2018-06-29T10:07:43.273Z,26.80
2018-06-29T10:10:10.895Z,26.90
2018-06-29T10:12:38.542Z,26.90
2018-06-29T10:15:06.274Z,27.00
2018-06-29T10:17:33.962Z,27.00
2018-06-29T10:20:01.845Z,26.90
2018-06-29T10:22:29.419Z,27.10
2018-06-29T10:24:57.030Z,27.20
2018-06-29T10:27:24.727Z,27.20
2018-06-29T10:29:52.737Z,27.20
2018-06-29T10:32:20.406Z,27.30
2018-06-29T10:34:48.048Z,27.40
2018-06-29T10:37:15.763Z,27.50
2018-06-29T10:39:43.496Z,27.70
2018-06-29T10:42:11.122Z,27.80
2018-06-29T10:44:38.791Z,27.70
2018-06-29T10:47:06.427Z,27.80
2018-06-29T10:49:34.109Z,27.80
2018-06-29T10:52:01.821Z,27.70
2018-06-29T10:54:29.488Z,27.80
2018-06-29T10:56:57.139Z,28.00
2018-06-29T10:59:24.786Z,28.00
2018-06-29T11:01:52.421Z,28.10
2018-06-29T11:04:20.072Z,28.10
2018-06-29T11:06:47.711Z,28.10
2018-06-29T11:09:15.322Z,28.20
2018-06-29T11:11:43.066Z,28.30
2018-06-29T11:14:10.708Z,28.30
2018-06-29T11:16:38.358Z,28.20
2018-06-29T11:19:06.042Z,28.20
2018-06-29T11:21:33.674Z,28.30
2018-06-29T11:24:01.311Z,28.40
2018-06-29T11:26:28.950Z,28.40
2018-06-29T11:28:56.572Z,28.30
2018-06-29T11:31:24.236Z,28.40
2018-06-29T11:33:51.909Z,28.50
2018-06-29T11:36:19.579Z,28.50
2018-06-29T11:38:47.298Z,28.60
2018-06-29T11:41:14.953Z,28.70
2018-06-29T11:43:42.581Z,28.70
2018-06-29T11:46:12.463Z,28.80
2018-06-29T11:48:40.112Z,28.90
2018-06-29T11:51:07.767Z,29.00
2018-06-29T11:53:37.503Z,29.10
2018-06-29T11:56:05.222Z,29.20
2018-06-29T11:58:33.580Z,29.10
2018-06-29T12:01:01.206Z,29.10
2018-06-29T12:03:29.969Z,29.20
2018-06-29T12:05:57.643Z,29.20
2018-06-29T12:08:25.298Z,29.20
2018-06-29T12:10:53.037Z,29.20
2018-06-29T12:13:20.696Z,29.10
2018-06-29T12:15:48.346Z,29.10
2018-06-29T12:18:15.960Z,29.00
2018-06-29T12:20:43.638Z,29.00
2018-06-29T12:23:11.282Z,29.10
2018-06-29T12:25:38.947Z,29.10
2018-06-29T12:28:06.698Z,29.20
2018-06-29T12:30:34.298Z,29.20
2018-06-29T12:33:01.983Z,29.20
2018-06-29T12:35:29.725Z,29.20
2018-06-29T12:37:57.438Z,29.20
2018-06-29T12:40:25.242Z,29.20
2018-06-29T12:42:52.916Z,29.10
2018-06-29T12:45:20.584Z,29.20
2018-06-29T12:47:48.486Z,29.20
2018-06-29T12:50:16.258Z,29.20
2018-06-29T12:52:43.996Z,29.10
2018-06-29T12:55:11.665Z,29.00
2018-06-29T12:57:39.346Z,29.00
2018-06-29T13:00:07.103Z,28.90
2018-06-29T13:02:34.810Z,28.90
2018-06-29T13:05:02.623Z,29.00
2018-06-29T13:07:30.263Z,29.00
2018-06-29T13:09:57.938Z,29.00
2018-06-29T13:12:25.571Z,29.10
2018-06-29T13:14:53.205Z,29.10
2018-06-29T13:17:20.857Z,29.00
2018-06-29T13:19:48.518Z,29.10
2018-06-29T13:22:16.151Z,29.30
2018-06-29T13:24:43.788Z,29.50
2018-06-29T13:27:11.416Z,29.50
2018-06-29T13:29:39.130Z,29.30
2018-06-29T13:32:06.767Z,29.30
2018-06-29T13:34:34.436Z,29.30
2018-06-29T13:37:02.077Z,29.50
2018-06-29T13:39:29.847Z,29.60
2018-06-29T13:41:57.388Z,29.60
2018-06-29T13:44:25.052Z,29.50
2018-06-29T13:46:52.696Z,29.40
2018-06-29T13:49:20.354Z,29.40
2018-06-29T13:51:48.050Z,29.40
2018-06-29T13:54:15.746Z,29.40
2018-06-29T13:56:43.426Z,29.40
2018-06-29T13:59:11.084Z,29.30
2018-06-29T14:01:38.734Z,29.30
2018-06-29T14:04:06.378Z,29.30
2018-06-29T14:06:34.010Z,29.30
2018-06-29T14:09:01.706Z,29.30
2018-06-29T14:11:29.398Z,29.40
2018-06-29T14:13:57.039Z,29.50
2018-06-29T14:16:24.737Z,29.50
2018-06-29T14:18:52.382Z,29.60
2018-06-29T14:21:19.995Z,29.70
2018-06-29T14:23:47.670Z,29.80
2018-06-29T14:26:15.280Z,29.80
2018-06-29T14:28:42.906Z,29.80
2018-06-29T14:31:10.568Z,29.70
2018-06-29T14:33:38.257Z,29.70
2018-06-29T14:36:05.939Z,29.70
2018-06-29T14:38:33.640Z,29.80
2018-06-29T14:41:01.350Z,29.90
2018-06-29T14:43:28.959Z,29.80
2018-06-29T14:45:56.718Z,29.80
2018-06-29T14:48:24.378Z,30.00
2018-06-29T14:50:52.502Z,30.10
2018-06-29T14:53:20.178Z,30.20
2018-06-29T14:55:47.866Z,30.30
2018-06-29T14:58:15.488Z,30.20
2018-06-29T15:00:43.229Z,30.10
2018-06-29T15:03:10.938Z,30.20
2018-06-29T15:05:38.638Z,30.20
2018-06-29T15:08:06.324Z,30.10
2018-06-29T15:10:33.987Z,30.10
2018-06-29T15:13:01.665Z,30.00
2018-06-29T15:15:29.394Z,29.80
2018-06-29T15:17:57.081Z,29.70
2018-06-29T15:20:24.744Z,29.70
2018-06-29T15:22:52.482Z,29.70
2018-06-29T15:25:20.200Z,29.50
2018-06-29T15:27:47.863Z,29.50
2018-06-29T15:30:15.498Z,29.50
2018-06-29T15:32:43.183Z,29.30
2018-06-29T15:35:10.847Z,29.20
2018-06-29T15:37:38.479Z,29.00
2018-06-29T15:40:06.160Z,29.00
2018-06-29T15:42:34.854Z,28.80
2018-06-29T15:45:02.810Z,28.90
2018-06-29T15:47:30.475Z,28.90
2018-06-29T15:49:58.158Z,28.90
2018-06-29T15:52:25.821Z,28.90
2018-06-29T15:54:53.600Z,28.90
2018-06-29T15:57:21.413Z,29.10
2018-06-29T15:59:52.683Z,29.10
2018-06-29T16:02:20.391Z,29.10
2018-06-29T16:04:49.176Z,29.00
2018-06-29T16:07:16.819Z,28.80
2018-06-29T16:09:44.505Z,28.70
2018-06-29T16:12:12.245Z,28.60
2018-06-29T16:14:39.890Z,28.50
2018-06-29T16:17:08.266Z,28.40
2018-06-29T16:19:35.967Z,28.40
2018-06-29T16:22:03.658Z,28.40
2018-06-29T16:24:31.281Z,28.60
2018-06-29T16:26:58.951Z,28.60
2018-06-29T16:29:26.662Z,28.70
2018-06-29T16:31:54.285Z,28.80
2018-06-29T16:34:21.978Z,28.80
2018-06-29T16:36:49.613Z,28.80
2018-06-29T16:39:17.301Z,28.70
2018-06-29T16:41:44.971Z,28.60
2018-06-29T16:44:12.622Z,28.60
2018-06-29T16:46:40.315Z,28.40
2018-06-29T16:49:08.027Z,28.30
2018-06-29T16:51:35.994Z,28.20
2018-06-29T16:54:03.681Z,28.30
2018-06-29T16:56:31.366Z,28.30
2018-06-29T16:58:59.000Z,28.20
2018-06-29T17:01:26.674Z,28.00
2018-06-29T17:03:54.323Z,27.80
2018-06-29T17:06:21.941Z,27.70
2018-06-29T17:08:49.586Z,27.60
2018-06-29T17:11:17.255Z,27.50
2018-06-29T17:13:44.840Z,27.50
2018-06-29T17:16:12.485Z,27.70
2018-06-29T17:18:40.263Z,27.80
2018-06-29T17:21:08.098Z,27.80
2018-06-29T17:23:35.827Z,27.80
2018-06-29T17:26:03.528Z,27.70
2018-06-29T17:28:31.179Z,27.70
2018-06-29T17:30:58.821Z,27.50
2018-06-29T17:33:32.051Z,27.30
2018-06-29T17:35:54.118Z,27.40
2018-06-29T17:38:21.782Z,27.30
2018-06-29T17:40:49.466Z,27.30
2018-06-29T17:43:17.090Z,27.30
2018-06-29T17:45:44.841Z,27.40
2018-06-29T17:48:12.530Z,27.40
2018-06-29T17:50:40.270Z,27.40
2018-06-29T17:53:07.928Z,27.30
2018-06-29T17:55:35.727Z,27.20
2018-06-29T17:58:03.355Z,27.10
2018-06-29T18:00:31.006Z,27.00
2018-06-29T18:02:58.617Z,26.90
2018-06-29T18:05:26.277Z,26.70
2018-06-29T18:07:53.963Z,26.60
2018-06-29T18:10:21.609Z,26.50
2018-06-29T18:12:49.425Z,26.40
2018-06-29T18:15:17.055Z,26.40
2018-06-29T18:17:44.733Z,26.40
2018-06-29T18:20:12.428Z,26.40
2018-06-29T18:22:40.138Z,26.40
2018-06-29T18:25:07.835Z,26.30
2018-06-29T18:27:35.502Z,26.30
2018-06-29T18:30:03.261Z,26.30
2018-06-29T18:32:30.892Z,26.30
2018-06-29T18:34:58.540Z,26.20
2018-06-29T18:37:26.227Z,26.20
2018-06-29T18:39:53.946Z,26.00
2018-06-29T18:42:21.559Z,26.00
2018-06-29T18:44:49.179Z,25.90
2018-06-29T18:47:16.810Z,25.80
2018-06-29T18:49:44.498Z,25.80
2018-06-29T18:52:12.165Z,25.80
2018-06-29T18:54:39.872Z,25.70
2018-06-29T18:57:07.566Z,25.50
2018-06-29T18:59:35.341Z,25.40
2018-06-29T19:02:03.027Z,25.30
2018-06-29T19:04:30.702Z,25.30
2018-06-29T19:06:58.395Z,25.30
2018-06-29T19:09:26.075Z,25.20
2018-06-29T19:11:53.722Z,25.10
2018-06-29T19:14:21.402Z,25.00
2018-06-29T19:16:49.066Z,24.80
2018-06-29T19:19:16.742Z,24.70
2018-06-29T19:21:44.434Z,24.60
2018-06-29T19:24:12.066Z,24.50
2018-06-29T19:26:39.695Z,24.40
2018-06-29T19:29:07.331Z,24.30
2018-06-29T19:31:34.999Z,24.20
2018-06-29T19:34:02.674Z,24.10
2018-06-29T19:36:30.330Z,24.00
2018-06-29T19:38:58.089Z,23.90
2018-06-29T19:41:25.761Z,23.80
2018-06-29T19:43:53.451Z,23.70
2018-06-29T19:46:21.118Z,23.60
2018-06-29T19:48:48.760Z,23.50
2018-06-29T19:51:16.436Z,23.50
2018-06-29T19:53:44.083Z,23.40
2018-06-29T19:56:11.798Z,23.40
2018-06-29T19:58:39.447Z,23.30
2018-06-29T20:01:07.122Z,23.30
2018-06-29T20:03:34.802Z,23.20
2018-06-29T20:06:02.566Z,23.20
2018-06-29T20:08:30.235Z,23.20
2018-06-29T20:10:57.908Z,23.10
2018-06-29T20:13:25.649Z,23.00
2018-06-29T20:15:53.321Z,22.90
2018-06-29T20:18:21.028Z,22.80
2018-06-29T20:20:48.724Z,22.80
2018-06-29T20:23:16.440Z,22.70
2018-06-29T20:25:44.943Z,22.70
2018-06-29T20:28:12.639Z,22.60
2018-06-29T20:30:40.307Z,22.50
2018-06-29T20:33:08.067Z,22.40
2018-06-29T20:35:35.766Z,22.30
2018-06-29T20:38:03.469Z,22.30
2018-06-29T20:40:31.149Z,22.20
2018-06-29T20:42:58.833Z,22.10
2018-06-29T20:45:26.514Z,22.10
2018-06-29T20:47:54.136Z,22.00
2018-06-29T20:50:21.805Z,22.00
2018-06-29T20:52:49.435Z,22.00
2018-06-29T20:55:17.089Z,22.00
2018-06-29T20:57:44.942Z,22.00
2018-06-29T21:00:12.687Z,21.90
2018-06-29T21:02:40.381Z,21.90
2018-06-29T21:05:08.017Z,21.90
2018-06-29T21:07:36.782Z,21.80
2018-06-29T21:10:04.560Z,21.80
2018-06-29T21:12:32.277Z,21.80
2018-06-29T21:14:59.919Z,21.80
2018-06-29T21:17:27.642Z,21.70
2018-06-29T21:19:55.302Z,21.60
2018-06-29T21:22:22.984Z,21.60
2018-06-29T21:24:50.683Z,21.50
2018-06-29T21:27:18.429Z,21.50
2018-06-29T21:29:46.113Z,21.50
2018-06-29T21:32:13.877Z,21.40
2018-06-29T21:34:41.625Z,21.40
2018-06-29T21:37:09.347Z,21.30
2018-06-29T21:39:36.993Z,21.20
2018-06-29T21:42:04.670Z,21.10
2018-06-29T21:44:32.369Z,21.00
2018-06-29T21:47:00.043Z,21.00
2018-06-29T21:49:27.700Z,20.90
2018-06-29T21:51:55.393Z,20.80
2018-06-29T21:54:23.117Z,20.70
2018-06-29T21:56:50.835Z,20.70
2018-06-29T21:59:18.566Z,20.60
2018-06-29T22:01:46.268Z,20.50
2018-06-29T22:04:14.019Z,20.50
2018-06-29T22:06:41.699Z,20.60
2018-06-29T22:09:09.806Z,20.40
2018-06-29T22:11:37.486Z,20.30
2018-06-29T22:14:05.205Z,20.30
2018-06-29T22:16:32.838Z,20.20
2018-06-29T22:19:00.488Z,20.10
2018-06-29T22:21:28.194Z,20.10
2018-06-29T22:23:55.862Z,20.00
2018-06-29T22:26:23.575Z,19.90
2018-06-29T22:28:51.232Z,19.70
2018-06-29T22:31:18.912Z,19.70
2018-06-29T22:33:46.562Z,19.70
2018-06-29T22:36:14.219Z,19.60
2018-06-29T22:38:41.886Z,19.60
2018-06-29T22:41:09.620Z,19.60
2018-06-29T22:43:37.292Z,19.50
2018-06-29T22:46:04.989Z,19.50
2018-06-29T22:48:32.606Z,19.50
2018-06-29T22:51:00.270Z,19.40
2018-06-29T22:53:27.921Z,19.40
2018-06-29T22:55:55.571Z,19.30
2018-06-29T22:58:23.221Z,19.30
2018-06-29T23:00:50.876Z,19.30
2018-06-29T23:03:18.521Z,19.20
2018-06-29T23:05:46.161Z,19.10
2018-06-29T23:08:13.823Z,19.10
2018-06-29T23:10:41.499Z,19.00
2018-06-29T23:13:09.538Z,19.00
2018-06-29T23:15:37.211Z,19.00
2018-06-29T23:18:04.954Z,19.10
2018-06-29T23:20:32.658Z,19.00
2018-06-29T23:23:00.374Z,19.00
2018-06-29T23:25:28.067Z,19.10
2018-06-29T23:27:55.704Z,19.20
2018-06-29T23:30:23.350Z,19.30
2018-06-29T23:32:51.053Z,19.30
2018-06-29T23:35:18.696Z,19.20
2018-06-29T23:37:46.355Z,19.20
2018-06-29T23:40:14.010Z,19.20
2018-06-29T23:42:41.670Z,19.20
2018-06-29T23:45:09.339Z,19.20
2018-06-29T23:47:36.994Z,19.10
2018-06-29T23:50:04.742Z,19.10
2018-06-29T23:52:32.431Z,19.00
2018-06-29T23:55:00.180Z,18.90
2018-06-29T23:57:27.796Z,18.80
2018-06-29T23:59:55.470Z,18.70
